sensor_id;sensor_type;location;lat;lon;timestamp;pressure;altitude;pressure_sealevel;temperature;humidity
5877;BME280;2964;42.144;24.730;2023-02-18T00:00:05;143381.38;;;7.17;52.07
5877;BME280;2964;42.144;24.730;2023-02-18T00:02:32;143415.22;;;7.30;50.93
5877;BME280;2964;42.144;24.730;2023-02-18T00:04:59;143397.69;;;7.23;51.62
5877;BME280;2964;42.144;24.730;2023-02-18T00:07:25;143441.47;;;7.41;51.57
5877;BME280;2964;42.144;24.730;2023-02-18T00:09:53;143421.47;;;7.33;51.09
5877;BME280;2964;42.144;24.730;2023-02-18T00:12:20;143408.94;;;7.28;51.80
5877;BME280;2964;42.144;24.730;2023-02-18T00:14:47;143501.66;;;7.66;50.62
5877;BME280;2964;42.144;24.730;2023-02-18T00:17:13;143426.47;;;7.35;51.05
5877;BME280;2964;42.144;24.730;2023-02-18T00:19:40;143395.16;;;7.22;51.02
5877;BME280;2964;42.144;24.730;2023-02-18T00:22:07;143393.91;;;7.22;51.56
5877;BME280;2964;42.144;24.730;2023-02-18T00:24:33;143365.06;;;7.10;52.23
5877;BME280;2964;42.144;24.730;2023-02-18T00:27:01;143408.94;;;7.28;51.74
5877;BME280;2964;42.144;24.730;2023-02-18T00:29:28;143460.31;;;7.49;51.23
5877;BME280;2964;42.144;24.730;2023-02-18T00:31:55;143425.22;;;7.34;51.35
5877;BME280;2964;42.144;24.730;2023-02-18T00:34:21;143396.38;;;7.23;52.08
5877;BME280;2964;42.144;24.730;2023-02-18T00:36:48;143385.13;;;7.18;52.00
5877;BME280;2964;42.144;24.730;2023-02-18T00:39:15;143403.91;;;7.26;52.05
5877;BME280;2964;42.144;24.730;2023-02-18T00:41:42;143400.16;;;7.24;51.34
5877;BME280;2964;42.144;24.730;2023-02-18T00:44:11;143407.69;;;7.27;51.65
5877;BME280;2964;42.144;24.730;2023-02-18T00:46:38;143519.22;;;7.73;50.34
5877;BME280;2964;42.144;24.730;2023-02-18T00:49:05;143454.03;;;7.46;49.98
5877;BME280;2964;42.144;24.730;2023-02-18T00:51:32;143418.94;;;7.32;51.56
5877;BME280;2964;42.144;24.730;2023-02-18T00:53:59;143427.72;;;7.35;51.45
5877;BME280;2964;42.144;24.730;2023-02-18T00:56:26;143383.91;;;7.18;51.51
5877;BME280;2964;42.144;24.730;2023-02-18T00:58:53;143361.34;;;7.08;52.14
5877;BME280;2964;42.144;24.730;2023-02-18T01:01:21;143330.03;;;6.95;52.54
5877;BME280;2964;42.144;24.730;2023-02-18T01:03:48;143307.50;;;6.86;52.94
5877;BME280;2964;42.144;24.730;2023-02-18T01:06:15;143373.84;;;7.13;52.19
5877;BME280;2964;42.144;24.730;2023-02-18T01:08:42;143337.53;;;6.99;53.31
5877;BME280;2964;42.144;24.730;2023-02-18T01:11:11;143321.28;;;6.92;53.26
5877;BME280;2964;42.144;24.730;2023-02-18T01:13:38;143316.28;;;6.90;52.88
5877;BME280;2964;42.144;24.730;2023-02-18T01:16:05;143341.28;;;7.00;52.53
5877;BME280;2964;42.144;24.730;2023-02-18T01:18:34;143325.03;;;6.93;52.73
5877;BME280;2964;42.144;24.730;2023-02-18T01:21:01;143372.59;;;7.13;52.17
5877;BME280;2964;42.144;24.730;2023-02-18T01:23:29;143327.50;;;6.94;52.42
5877;BME280;2964;42.144;24.730;2023-02-18T01:25:56;143233.59;;;6.56;55.10
5877;BME280;2964;42.144;24.730;2023-02-18T01:28:23;143226.13;;;6.53;55.47
5877;BME280;2964;42.144;24.730;2023-02-18T01:30:51;143304.97;;;6.85;54.13
5877;BME280;2964;42.144;24.730;2023-02-18T01:33:17;143326.28;;;6.94;53.56
5877;BME280;2964;42.144;24.730;2023-02-18T01:35:46;143269.91;;;6.71;53.74
5877;BME280;2964;42.144;24.730;2023-02-18T01:38:12;143308.75;;;6.87;53.19
5877;BME280;2964;42.144;24.730;2023-02-18T01:40:44;143284.97;;;6.77;52.85
5877;BME280;2964;42.144;24.730;2023-02-18T01:43:12;143247.38;;;6.62;53.51
5877;BME280;2964;42.144;24.730;2023-02-18T01:45:59;143396.38;;;7.23;51.65
5877;BME280;2964;42.144;24.730;2023-02-18T01:48:29;143368.84;;;7.11;51.73
5877;BME280;2964;42.144;24.730;2023-02-18T01:51:02;143269.91;;;6.71;52.58
5877;BME280;2964;42.144;24.730;2023-02-18T01:53:36;143248.66;;;6.62;52.68
5877;BME280;2964;42.144;24.730;2023-02-18T01:56:09;143347.59;;;7.03;52.10
5877;BME280;2964;42.144;24.730;2023-02-18T01:58:37;143316.28;;;6.90;53.01
5877;BME280;2964;42.144;24.730;2023-02-18T02:01:04;143188.53;;;6.37;54.59
5877;BME280;2964;42.144;24.730;2023-02-18T02:03:31;143254.91;;;6.65;53.55
5877;BME280;2964;42.144;24.730;2023-02-18T02:05:59;143188.53;;;6.37;54.82
5877;BME280;2964;42.144;24.730;2023-02-18T02:08:27;143163.53;;;6.27;55.43
5877;BME280;2964;42.144;24.730;2023-02-18T02:11:13;143135.94;;;6.16;55.22
5877;BME280;2964;42.144;24.730;2023-02-18T02:14:04;143104.72;;;6.03;56.58
5877;BME280;2964;42.144;24.730;2023-02-18T02:16:37;143173.53;;;6.31;55.12
5877;BME280;2964;42.144;24.730;2023-02-18T02:19:22;143110.94;;;6.06;54.94
5877;BME280;2964;42.144;24.730;2023-02-18T02:22:18;143227.34;;;6.53;54.05
5877;BME280;2964;42.144;24.730;2023-02-18T02:24:59;143202.31;;;6.43;53.94
5877;BME280;2964;42.144;24.730;2023-02-18T02:27:49;143178.53;;;6.33;54.64
5877;BME280;2964;42.144;24.730;2023-02-18T02:30:42;143147.25;;;6.21;54.87
5877;BME280;2964;42.144;24.730;2023-02-18T02:33:34;143078.38;;;5.92;56.21
5877;BME280;2964;42.144;24.730;2023-02-18T02:36:11;143211.06;;;6.47;54.62
5877;BME280;2964;42.144;24.730;2023-02-18T02:38:46;143105.94;;;6.04;54.46
5877;BME280;2964;42.144;24.730;2023-02-18T02:41:26;143141.00;;;6.18;54.73
5877;BME280;2964;42.144;24.730;2023-02-18T02:44:00;143157.25;;;6.25;54.33
5877;BME280;2964;42.144;24.730;2023-02-18T02:46:36;143110.94;;;6.06;54.48
5877;BME280;2964;42.144;24.730;2023-02-18T02:49:10;143148.47;;;6.21;54.58
5877;BME280;2964;42.144;24.730;2023-02-18T02:51:45;143087.19;;;5.96;56.21
5877;BME280;2964;42.144;24.730;2023-02-18T02:54:17;143184.78;;;6.36;54.94
5877;BME280;2964;42.144;24.730;2023-02-18T02:56:44;143239.88;;;6.59;53.15
5877;BME280;2964;42.144;24.730;2023-02-18T02:59:15;143164.75;;;6.28;54.87
5877;BME280;2964;42.144;24.730;2023-02-18T03:01:57;143186.06;;;6.36;54.61
5877;BME280;2964;42.144;24.730;2023-02-18T03:07:57;143108.44;;;6.05;55.06
5877;BME280;2964;42.144;24.730;2023-02-18T03:10:38;143166.00;;;6.28;54.95
5877;BME280;2964;42.144;24.730;2023-02-18T03:13:10;143039.56;;;5.76;55.96
5877;BME280;2964;42.144;24.730;2023-02-18T03:15:44;143063.34;;;5.86;56.34
5877;BME280;2964;42.144;24.730;2023-02-18T03:18:16;143054.56;;;5.83;56.83
5877;BME280;2964;42.144;24.730;2023-02-18T03:20:50;143030.81;;;5.73;56.74
5877;BME280;2964;42.144;24.730;2023-02-18T03:23:22;143005.81;;;5.63;57.86
5877;BME280;2964;42.144;24.730;2023-02-18T03:25:51;142999.53;;;5.60;57.84
5877;BME280;2964;42.144;24.730;2023-02-18T03:28:22;143038.34;;;5.76;56.52
5877;BME280;2964;42.144;24.730;2023-02-18T03:30:52;143148.47;;;6.21;54.90
5877;BME280;2964;42.144;24.730;2023-02-18T03:33:25;143072.09;;;5.90;56.19
5877;BME280;2964;42.144;24.730;2023-02-18T03:35:55;143206.06;;;6.45;54.34
5877;BME280;2964;42.144;24.730;2023-02-18T03:38:28;143226.13;;;6.53;53.15
5877;BME280;2964;42.144;24.730;2023-02-18T03:40:55;143159.75;;;6.26;53.91
5877;BME280;2964;42.144;24.730;2023-02-18T03:43:22;143234.84;;;6.56;53.38
5877;BME280;2964;42.144;24.730;2023-02-18T03:45:49;143248.66;;;6.62;53.13
5877;BME280;2964;42.144;24.730;2023-02-18T03:48:16;143221.06;;;6.51;53.50
5877;BME280;2964;42.144;24.730;2023-02-18T03:50:43;143223.59;;;6.52;53.03
5877;BME280;2964;42.144;24.730;2023-02-18T03:53:10;143261.13;;;6.67;52.47
5877;BME280;2964;42.144;24.730;2023-02-18T03:55:38;143243.59;;;6.60;53.24
5877;BME280;2964;42.144;24.730;2023-02-18T03:58:04;143238.59;;;6.58;52.71
5877;BME280;2964;42.144;24.730;2023-02-18T04:00:31;143328.75;;;6.95;51.24
5877;BME280;2964;42.144;24.730;2023-02-18T04:02:58;143333.75;;;6.97;50.73
5877;BME280;2964;42.144;24.730;2023-02-18T04:05:24;143378.84;;;7.15;50.43
5877;BME280;2964;42.144;24.730;2023-02-18T04:07:51;143386.38;;;7.19;50.68
5877;BME280;2964;42.144;24.730;2023-02-18T04:10:18;143353.81;;;7.05;50.88
5877;BME280;2964;42.144;24.730;2023-02-18T04:12:46;143345.06;;;7.02;50.69
5877;BME280;2964;42.144;24.730;2023-02-18T04:15:12;143263.66;;;6.68;52.25
5877;BME280;2964;42.144;24.730;2023-02-18T04:17:47;143268.66;;;6.70;51.71
5877;BME280;2964;42.144;24.730;2023-02-18T04:20:31;143326.28;;;6.94;51.64
5877;BME280;2964;42.144;24.730;2023-02-18T04:22:57;143335.03;;;6.98;51.24
5877;BME280;2964;42.144;24.730;2023-02-18T04:25:24;143371.38;;;7.12;49.93
5877;BME280;2964;42.144;24.730;2023-02-18T04:27:52;143308.75;;;6.87;50.80
5877;BME280;2964;42.144;24.730;2023-02-18T04:30:19;143308.75;;;6.87;51.47
5877;BME280;2964;42.144;24.730;2023-02-18T04:32:46;143258.66;;;6.66;51.68
5877;BME280;2964;42.144;24.730;2023-02-18T04:35:15;143242.38;;;6.60;51.46
5877;BME280;2964;42.144;24.730;2023-02-18T04:37:42;143226.13;;;6.53;52.74
5877;BME280;2964;42.144;24.730;2023-02-18T04:40:09;143266.13;;;6.69;52.36
5877;BME280;2964;42.144;24.730;2023-02-18T04:42:36;143284.97;;;6.77;52.20
5877;BME280;2964;42.144;24.730;2023-02-18T04:45:04;143259.91;;;6.67;51.44
5877;BME280;2964;42.144;24.730;2023-02-18T04:47:31;143378.84;;;7.15;50.07
5877;BME280;2964;42.144;24.730;2023-02-18T04:49:58;143373.84;;;7.13;50.49
5877;BME280;2964;42.144;24.730;2023-02-18T04:52:25;143441.47;;;7.41;50.12
5877;BME280;2964;42.144;24.730;2023-02-18T04:54:52;143451.53;;;7.45;49.06
5877;BME280;2964;42.144;24.730;2023-02-18T04:57:18;143444.00;;;7.42;48.55
5877;BME280;2964;42.144;24.730;2023-02-18T04:59:45;143477.81;;;7.56;47.99
5877;BME280;2964;42.144;24.730;2023-02-18T05:02:14;143536.75;;;7.80;47.47
5877;BME280;2964;42.144;24.730;2023-02-18T05:04:41;143546.78;;;7.84;47.49
5877;BME280;2964;42.144;24.730;2023-02-18T05:07:07;143554.25;;;7.87;47.42
5877;BME280;2964;42.144;24.730;2023-02-18T05:09:34;143573.09;;;7.95;46.76
5877;BME280;2964;42.144;24.730;2023-02-18T05:12:00;143512.91;;;7.70;47.26
5877;BME280;2964;42.144;24.730;2023-02-18T05:14:27;143608.16;;;8.09;46.56
5877;BME280;2964;42.144;24.730;2023-02-18T05:16:54;143570.56;;;7.94;47.06
5877;BME280;2964;42.144;24.730;2023-02-18T05:19:22;143556.78;;;7.88;46.93
5877;BME280;2964;42.144;24.730;2023-02-18T05:21:49;143591.88;;;8.03;47.05
5877;BME280;2964;42.144;24.730;2023-02-18T05:24:15;143619.47;;;8.14;46.23
5877;BME280;2964;42.144;24.730;2023-02-18T05:26:42;143665.84;;;8.33;45.40
5877;BME280;2964;42.144;24.730;2023-02-18T05:29:09;143648.28;;;8.26;45.87
5877;BME280;2964;42.144;24.730;2023-02-18T05:31:35;143706.00;;;8.49;45.09
5877;BME280;2964;42.144;24.730;2023-02-18T05:34:02;143697.22;;;8.46;45.17
5877;BME280;2964;42.144;24.730;2023-02-18T05:36:31;143693.47;;;8.44;44.99
5877;BME280;2964;42.144;24.730;2023-02-18T05:38:57;143739.91;;;8.63;44.38
5877;BME280;2964;42.144;24.730;2023-02-18T05:41:24;143733.59;;;8.61;44.33
5877;BME280;2964;42.144;24.730;2023-02-18T05:43:54;143795.06;;;8.86;43.91
5877;BME280;2964;42.144;24.730;2023-02-18T05:46:38;143811.34;;;8.93;43.65
5877;BME280;2964;42.144;24.730;2023-02-18T05:49:04;143817.66;;;8.95;43.34
5877;BME280;2964;42.144;24.730;2023-02-18T05:51:32;143802.59;;;8.89;43.94
5877;BME280;2964;42.144;24.730;2023-02-18T05:53:59;143851.50;;;9.09;43.47
5877;BME280;2964;42.144;24.730;2023-02-18T05:56:26;143884.16;;;9.22;43.34
5877;BME280;2964;42.144;24.730;2023-02-18T05:58:52;143901.72;;;9.30;42.86
5877;BME280;2964;42.144;24.730;2023-02-18T06:01:19;143902.97;;;9.30;43.04
5877;BME280;2964;42.144;24.730;2023-02-18T06:03:46;144018.41;;;9.77;41.98
5877;BME280;2964;42.144;24.730;2023-02-18T06:06:12;143899.19;;;9.28;44.01
5877;BME280;2964;42.144;24.730;2023-02-18T06:08:40;143886.63;;;9.23;43.41
5877;BME280;2964;42.144;24.730;2023-02-18T06:11:07;143871.59;;;9.17;43.80
5877;BME280;2964;42.144;24.730;2023-02-18T06:13:34;143948.13;;;9.49;43.37
5877;BME280;2964;42.144;24.730;2023-02-18T06:16:00;143930.56;;;9.41;43.53
5877;BME280;2964;42.144;24.730;2023-02-18T06:18:28;143970.72;;;9.58;42.97
5877;BME280;2964;42.144;24.730;2023-02-18T06:20:54;143960.69;;;9.54;43.24
5877;BME280;2964;42.144;24.730;2023-02-18T06:23:21;143971.97;;;9.58;43.36
5877;BME280;2964;42.144;24.730;2023-02-18T06:25:49;144008.38;;;9.73;42.99
5877;BME280;2964;42.144;24.730;2023-02-18T06:28:16;144020.94;;;9.78;43.16
5877;BME280;2964;42.144;24.730;2023-02-18T06:30:43;144063.59;;;9.96;42.10
5877;BME280;2964;42.144;24.730;2023-02-18T06:33:10;144078.69;;;10.02;41.72
5877;BME280;2964;42.144;24.730;2023-02-18T06:35:36;144078.69;;;10.02;41.95
5877;BME280;2964;42.144;24.730;2023-02-18T06:38:03;144116.34;;;10.17;42.01
5877;BME280;2964;42.144;24.730;2023-02-18T06:40:30;144159.09;;;10.35;41.33
5877;BME280;2964;42.144;24.730;2023-02-18T06:42:58;144211.81;;;10.56;41.00
5877;BME280;2964;42.144;24.730;2023-02-18T06:45:24;144216.84;;;10.58;41.37
5877;BME280;2964;42.144;24.730;2023-02-18T06:47:51;144336.22;;;11.07;39.73
5877;BME280;2964;42.144;24.730;2023-02-18T06:50:18;144470.72;;;11.62;38.68
5877;BME280;2964;42.144;24.730;2023-02-18T06:52:44;144562.53;;;12.00;37.95
5877;BME280;2964;42.144;24.730;2023-02-18T06:55:11;144599.00;;;12.14;38.32
5877;BME280;2964;42.144;24.730;2023-02-18T06:57:38;144624.16;;;12.25;36.71
5877;BME280;2964;42.144;24.730;2023-02-18T07:00:07;144714.75;;;12.62;36.22
5877;BME280;2964;42.144;24.730;2023-02-18T07:02:34;144795.22;;;12.94;35.47
5877;BME280;2964;42.144;24.730;2023-02-18T07:05:01;144753.72;;;12.78;35.38
5877;BME280;2964;42.144;24.730;2023-02-18T07:07:28;144853.13;;;13.18;35.05
5877;BME280;2964;42.144;24.730;2023-02-18T07:09:54;144966.47;;;13.64;34.10
5877;BME280;2964;42.144;24.730;2023-02-18T07:12:21;145098.72;;;14.18;33.98
5877;BME280;2964;42.144;24.730;2023-02-18T07:14:48;145107.53;;;14.22;34.16
5877;BME280;2964;42.144;24.730;2023-02-18T07:17:16;145174.31;;;14.49;33.39
5877;BME280;2964;42.144;24.730;2023-02-18T07:19:42;145283.97;;;14.94;33.33
5877;BME280;2964;42.144;24.730;2023-02-18T07:22:09;145304.16;;;15.02;32.31
5877;BME280;2964;42.144;24.730;2023-02-18T07:24:36;145306.66;;;15.03;32.42
5877;BME280;2964;42.144;24.730;2023-02-18T07:27:03;145248.72;;;14.79;32.50
5877;BME280;2964;42.144;24.730;2023-02-18T07:29:29;145255.00;;;14.82;32.86
5877;BME280;2964;42.144;24.730;2023-02-18T07:31:56;145273.91;;;14.90;32.43
5877;BME280;2964;42.144;24.730;2023-02-18T07:34:24;145232.31;;;14.73;32.42
5877;BME280;2964;42.144;24.730;2023-02-18T07:36:51;145326.84;;;15.11;32.16
5877;BME280;2964;42.144;24.730;2023-02-18T07:39:17;145372.25;;;15.30;31.21
5877;BME280;2964;42.144;24.730;2023-02-18T07:41:45;145261.28;;;14.84;32.35
5877;BME280;2964;42.144;24.730;2023-02-18T07:44:12;145198.28;;;14.59;33.03
5877;BME280;2964;42.144;24.730;2023-02-18T07:46:39;145277.69;;;14.91;32.18
5877;BME280;2964;42.144;24.730;2023-02-18T07:49:06;145190.69;;;14.56;33.21
5877;BME280;2964;42.144;24.730;2023-02-18T07:51:34;145178.09;;;14.51;32.79
5877;BME280;2964;42.144;24.730;2023-02-18T07:54:03;145248.72;;;14.79;32.48
5877;BME280;2964;42.144;24.730;2023-02-18T07:56:29;145052.13;;;13.99;33.07
5877;BME280;2964;42.144;24.730;2023-02-18T07:58:56;145064.72;;;14.04;33.11
5877;BME280;2964;42.144;24.730;2023-02-18T08:01:23;145152.88;;;14.40;33.39
5877;BME280;2964;42.144;24.730;2023-02-18T08:03:49;145263.84;;;14.85;32.55
5877;BME280;2964;42.144;24.730;2023-02-18T08:06:20;145480.72;;;15.74;31.68
5877;BME280;2964;42.144;24.730;2023-02-18T08:08:49;145649.75;;;16.43;31.30
5877;BME280;2964;42.144;24.730;2023-02-18T08:11:16;145768.44;;;16.91;29.56
5877;BME280;2964;42.144;24.730;2023-02-18T08:13:42;145763.38;;;16.89;30.02
5877;BME280;2964;42.144;24.730;2023-02-18T08:16:09;145855.53;;;17.26;29.19
5877;BME280;2964;42.144;24.730;2023-02-18T08:18:36;145922.44;;;17.53;28.76
5877;BME280;2964;42.144;24.730;2023-02-18T08:21:03;145989.41;;;17.81;28.60
5877;BME280;2964;42.144;24.730;2023-02-18T08:23:29;145922.44;;;17.53;28.62
5877;BME280;2964;42.144;24.730;2023-02-18T08:25:57;145901.03;;;17.45;28.72
5877;BME280;2964;42.144;24.730;2023-02-18T08:28:24;145793.69;;;17.01;29.27
5877;BME280;2964;42.144;24.730;2023-02-18T08:30:52;145534.97;;;15.96;30.47
5877;BME280;2964;42.144;24.730;2023-02-18T08:33:20;145541.25;;;15.98;30.99
5877;BME280;2964;42.144;24.730;2023-02-18T08:35:48;145551.34;;;16.02;31.67
5877;BME280;2964;42.144;24.730;2023-02-18T08:38:15;145755.84;;;16.86;30.12
5877;BME280;2964;42.144;24.730;2023-02-18T08:40:42;145945.19;;;17.63;29.49
5877;BME280;2964;42.144;24.730;2023-02-18T08:43:10;146074.09;;;18.15;27.93
5877;BME280;2964;42.144;24.730;2023-02-18T08:45:38;145965.41;;;17.71;28.54
5877;BME280;2964;42.144;24.730;2023-02-18T08:48:08;146002.09;;;17.86;29.29
5877;BME280;2964;42.144;24.730;2023-02-18T08:50:35;146148.63;;;18.45;28.55
5877;BME280;2964;42.144;24.730;2023-02-18T08:53:02;146235.88;;;18.81;28.44
5877;BME280;2964;42.144;24.730;2023-02-18T08:55:29;146132.19;;;18.39;28.14
5877;BME280;2964;42.144;24.730;2023-02-18T08:57:55;145975.50;;;17.75;28.42
5877;BME280;2964;42.144;24.730;2023-02-18T09:00:24;145871.94;;;17.33;29.14
5877;BME280;2964;42.144;24.730;2023-02-18T09:02:50;145991.94;;;17.82;29.16
5877;BME280;2964;42.144;24.730;2023-02-18T09:05:17;146420.47;;;19.56;27.40
5877;BME280;2964;42.144;24.730;2023-02-18T09:07:44;146788.78;;;21.05;25.50
5877;BME280;2964;42.144;24.730;2023-02-18T09:10:21;146999.03;;;21.90;24.23
5877;BME280;2964;42.144;24.730;2023-02-18T09:12:48;147147.34;;;22.50;23.74
5877;BME280;2964;42.144;24.730;2023-02-18T09:15:16;146762.19;;;20.94;24.82
5877;BME280;2964;42.144;24.730;2023-02-18T09:17:44;146622.91;;;20.38;25.22
5877;BME280;2964;42.144;24.730;2023-02-18T09:20:11;146434.38;;;19.61;26.85
5877;BME280;2964;42.144;24.730;2023-02-18T09:22:37;146578.66;;;20.20;25.72
5877;BME280;2964;42.144;24.730;2023-02-18T09:25:05;146605.25;;;20.31;25.18
5877;BME280;2964;42.144;24.730;2023-02-18T09:27:32;146728.03;;;20.80;24.74
5877;BME280;2964;42.144;24.730;2023-02-18T09:29:58;146990.19;;;21.87;23.50
5877;BME280;2964;42.144;24.730;2023-02-18T09:32:25;146835.63;;;21.24;23.97
5877;BME280;2964;42.144;24.730;2023-02-18T09:34:53;146953.44;;;21.72;23.55
5877;BME280;2964;42.144;24.730;2023-02-18T09:37:20;146764.75;;;20.95;24.32
5877;BME280;2964;42.144;24.730;2023-02-18T09:39:46;146526.75;;;19.99;25.33
5877;BME280;2964;42.144;24.730;2023-02-18T09:42:16;146402.78;;;19.48;25.89
5877;BME280;2964;42.144;24.730;2023-02-18T09:44:48;146426.78;;;19.58;25.72
5877;BME280;2964;42.144;24.730;2023-02-18T09:47:19;146617.84;;;20.36;25.52
5877;BME280;2964;42.144;24.730;2023-02-18T09:49:50;146885.00;;;21.44;24.58
5877;BME280;2964;42.144;24.730;2023-02-18T09:52:21;147142.28;;;22.48;23.38
5877;BME280;2964;42.144;24.730;2023-02-18T09:54:49;147067.44;;;22.18;23.73
5877;BME280;2964;42.144;24.730;2023-02-18T09:57:22;147080.13;;;22.23;23.69
5877;BME280;2964;42.144;24.730;2023-02-18T09:59:56;147738.47;;;24.90;21.52
5877;BME280;2964;42.144;24.730;2023-02-18T10:02:23;148081.47;;;26.28;19.66
5877;BME280;2964;42.144;24.730;2023-02-18T10:04:50;148535.41;;;28.11;18.60
5877;BME280;2964;42.144;24.730;2023-02-18T10:07:23;148429.81;;;27.69;18.42
5877;BME280;2964;42.144;24.730;2023-02-18T10:09:53;147758.81;;;24.98;19.92
5877;BME280;2964;42.144;24.730;2023-02-18T10:12:21;147880.75;;;25.47;20.31
5877;BME280;2964;42.144;24.730;2023-02-18T10:14:50;148057.31;;;26.18;19.54
5877;BME280;2964;42.144;24.730;2023-02-18T10:17:17;147730.91;;;24.87;20.40
5877;BME280;2964;42.144;24.730;2023-02-18T10:19:46;147522.72;;;24.02;21.35
5877;BME280;2964;42.144;24.730;2023-02-18T10:22:18;147215.78;;;22.78;21.72
5877;BME280;2964;42.144;24.730;2023-02-18T10:24:51;147040.84;;;22.07;22.13
5877;BME280;2964;42.144;24.730;2023-02-18T10:27:22;146848.28;;;21.29;23.27
5877;BME280;2964;42.144;24.730;2023-02-18T10:29:50;146665.97;;;20.55;23.68
5877;BME280;2964;42.144;24.730;2023-02-18T10:32:21;146693.84;;;20.67;23.99
5877;BME280;2964;42.144;24.730;2023-02-18T10:34:52;146673.56;;;20.58;24.30
5877;BME280;2964;42.144;24.730;2023-02-18T10:37:30;146626.72;;;20.39;24.82
5877;BME280;2964;42.144;24.730;2023-02-18T10:40:08;146488.81;;;19.83;25.55
5877;BME280;2964;42.144;24.730;2023-02-18T10:42:45;146562.19;;;20.13;25.30
5877;BME280;2964;42.144;24.730;2023-02-18T10:45:22;146559.69;;;20.12;24.88
5877;BME280;2964;42.144;24.730;2023-02-18T10:48:01;146496.44;;;19.86;24.46
5877;BME280;2964;42.144;24.730;2023-02-18T10:50:34;146488.81;;;19.83;24.29
5877;BME280;2964;42.144;24.730;2023-02-18T10:53:10;146419.22;;;19.55;25.09
5877;BME280;2964;42.144;24.730;2023-02-18T10:55:40;146478.72;;;19.79;24.84
5877;BME280;2964;42.144;24.730;2023-02-18T10:58:26;146387.63;;;19.42;24.83
5877;BME280;2964;42.144;24.730;2023-02-18T11:00:53;146398.97;;;19.47;25.75
5877;BME280;2964;42.144;24.730;2023-02-18T11:03:21;146406.56;;;19.50;25.64
5877;BME280;2964;42.144;24.730;2023-02-18T11:05:50;146435.63;;;19.62;25.38
5877;BME280;2964;42.144;24.730;2023-02-18T11:08:20;146468.56;;;19.75;25.50
5877;BME280;2964;42.144;24.730;2023-02-18T11:10:49;146443.25;;;19.65;25.91
5877;BME280;2964;42.144;24.730;2023-02-18T11:13:23;146443.25;;;19.65;25.88
5877;BME280;2964;42.144;24.730;2023-02-18T11:15:56;146433.13;;;19.61;25.95
5877;BME280;2964;42.144;24.730;2023-02-18T11:18:36;146401.53;;;19.48;26.16
5877;BME280;2964;42.144;24.730;2023-02-18T11:21:05;146338.28;;;19.22;26.39
5877;BME280;2964;42.144;24.730;2023-02-18T11:23:45;146344.59;;;19.25;26.45
5877;BME280;2964;42.144;24.730;2023-02-18T11:26:15;146395.16;;;19.45;26.23
5877;BME280;2964;42.144;24.730;2023-02-18T11:28:44;146382.56;;;19.40;26.40
5877;BME280;2964;42.144;24.730;2023-02-18T11:31:19;146337.03;;;19.22;26.82
5877;BME280;2964;42.144;24.730;2023-02-18T11:33:49;146361.06;;;19.32;26.56
5877;BME280;2964;42.144;24.730;2023-02-18T11:36:21;146453.34;;;19.69;26.30
5877;BME280;2964;42.144;24.730;2023-02-18T11:38:52;146342.09;;;19.24;25.48
5877;BME280;2964;42.144;24.730;2023-02-18T11:41:29;146417.94;;;19.55;26.00
5877;BME280;2964;42.144;24.730;2023-02-18T11:43:57;146410.38;;;19.52;26.08
5877;BME280;2964;42.144;24.730;2023-02-18T11:46:25;146398.97;;;19.47;25.70
5877;BME280;2964;42.144;24.730;2023-02-18T11:48:52;146407.81;;;19.51;25.45
5877;BME280;2964;42.144;24.730;2023-02-18T11:51:24;146385.06;;;19.41;25.24
5877;BME280;2964;42.144;24.730;2023-02-18T11:53:59;146324.38;;;19.17;25.61
5877;BME280;2964;42.144;24.730;2023-02-18T11:56:30;146385.06;;;19.41;26.00
5877;BME280;2964;42.144;24.730;2023-02-18T11:58:58;146411.63;;;19.52;25.85
5877;BME280;2964;42.144;24.730;2023-02-18T12:01:33;146373.69;;;19.37;26.17
5877;BME280;2964;42.144;24.730;2023-02-18T12:04:07;146401.53;;;19.48;26.27
5877;BME280;2964;42.144;24.730;2023-02-18T12:06:38;146478.72;;;19.79;25.69
5877;BME280;2964;42.144;24.730;2023-02-18T12:09:16;146488.81;;;19.83;26.27
5877;BME280;2964;42.144;24.730;2023-02-18T12:11:48;146452.09;;;19.68;26.20
5877;BME280;2964;42.144;24.730;2023-02-18T12:14:17;146450.84;;;19.68;26.65
5877;BME280;2964;42.144;24.730;2023-02-18T12:16:56;146491.31;;;19.84;26.08
5877;BME280;2964;42.144;24.730;2023-02-18T12:19:42;146478.72;;;19.79;26.74
5877;BME280;2964;42.144;24.730;2023-02-18T12:22:17;146539.41;;;20.04;26.76
5877;BME280;2964;42.144;24.730;2023-02-18T12:24:57;146529.31;;;20.00;26.81
5877;BME280;2964;42.144;24.730;2023-02-18T12:27:33;146519.19;;;19.96;27.17
5877;BME280;2964;42.144;24.730;2023-02-18T12:33:07;146572.31;;;20.17;27.03
5877;BME280;2964;42.144;24.730;2023-02-18T12:35:51;146563.44;;;20.14;27.03
5877;BME280;2964;42.144;24.730;2023-02-18T12:38:40;146528.06;;;19.99;27.49
5877;BME280;2964;42.144;24.730;2023-02-18T12:41:22;146536.91;;;20.03;27.26
5877;BME280;2964;42.144;24.730;2023-02-18T12:44:01;146534.38;;;20.02;27.50
5877;BME280;2964;42.144;24.730;2023-02-18T12:46:45;146530.56;;;20.00;27.22
5877;BME280;2964;42.144;24.730;2023-02-18T12:52:24;146530.56;;;20.00;27.30
5877;BME280;2964;42.144;24.730;2023-02-18T12:55:24;146531.81;;;20.01;27.26
5877;BME280;2964;42.144;24.730;2023-02-18T12:57:59;146560.94;;;20.13;26.86
5877;BME280;2964;42.144;24.730;2023-02-18T13:01:01;146562.19;;;20.13;27.30
5877;BME280;2964;42.144;24.730;2023-02-18T13:03:59;146524.25;;;19.98;27.27
5877;BME280;2964;42.144;24.730;2023-02-18T13:06:41;146493.88;;;19.85;27.52
5877;BME280;2964;42.144;24.730;2023-02-18T13:09:18;146529.31;;;20.00;28.33
5877;BME280;2964;42.144;24.730;2023-02-18T13:11:52;146526.75;;;19.99;28.22
5877;BME280;2964;42.144;24.730;2023-02-18T13:14:24;146568.50;;;20.16;28.30
5877;BME280;2964;42.144;24.730;2023-02-18T13:16:55;146533.13;;;20.01;28.40
5877;BME280;2964;42.144;24.730;2023-02-18T13:19:24;146491.31;;;19.84;29.15
5877;BME280;2964;42.144;24.730;2023-02-18T13:21:55;146454.59;;;19.70;29.63
5877;BME280;2964;42.144;24.730;2023-02-18T13:24:29;146449.56;;;19.67;29.12
5877;BME280;2964;42.144;24.730;2023-02-18T13:27:05;146450.84;;;19.68;29.40
5877;BME280;2964;42.144;24.730;2023-02-18T13:29:38;146387.63;;;19.42;29.36